Nassauborg — PHDU — position and weather

sailwx.info

Track history (hours):
 
Tides and Currents Weather Stations Pressure Air Temp Water Temp Dewpoint Dewpoint Depression Visibility Wind Speed Wind Dir Waves Ship Positions

Nassauborg

Ship's website: http://www.wagenborg.com/index.cfm?pid=37&itemid=158&contentitemid=236

Last reported at 2017-Jul-27 06:20 UTC. Time now 2017-Jul-27 06:49 UTC.
Position N 50°17' E 000°00'.

Length 143 m; beam 22 m.

Type: Ship. MMSI: 246430000.

Date/timePositionNaut miles runAvg speedWind from/ knotsBaromVisibWave heightAir tempDewpointWater temp
2017-Jul-27 06:20N 50°17' E 000°00'4410.0
2017-Jul-27 01:54N 49°36' W 000°26'919.0
2017-Jul-27 01:25N 49°28' W 000°19'512.9
2017-Jul-27 01:00N 49°31' W 000°12'611.1
2017-Jul-27 00:30N 49°29' W 000°04'5 9.0
2017-Jul-27 00:00N 49°27' E 000°02'611.7
2017-Jul-26 23:30N 49°26' E 000°11'510.7
2017-Jul-26 23:00N 49°26' E 000°19'4 8.8
2017-Jul-26 22:30N 49°27' E 000°25'4 7.2
2017-Jul-26 21:57N 49°29' E 000°31'6 6.5
2017-Jul-26 21:01N 49°28' E 000°40'011.2
2017-Jul-26 21:00N 49°28' E 000°40'0 0.0
2017-Jul-24 23:57N 49°27' E 000°40'4 9.7
2017-Jul-24 23:30N 49°27' E 000°33'4 8.8
2017-Jul-24 23:00N 49°28' E 000°26'713.1
2017-Jul-24 22:30N 49°26' E 000°17'611.3
2017-Jul-24 22:00N 49°26' E 000°08'611.9
2017-Jul-24 21:30N 49°28' W 000°00'510.0
2017-Jul-24 21:00N 49°30' W 000°07'4 8.4
2017-Jul-24 20:30N 49°32' W 000°13'4 7.7
2017-Jul-24 19:56N 49°33' W 000°20'5 8.5
2017-Jul-24 19:20N 49°35' W 000°27'1 2.2
2017-Jul-24 18:43N 49°36' W 000°26'2 7.5
2017-Jul-24 18:30N 49°35' W 000°23'4 7.2
2017-Jul-24 18:00N 49°33' W 000°19'37 7.3
2017-Jul-24 13:01N 49°49' W 001°10'4 7.4
2017-Jul-24 12:30N 49°51' W 001°15'4 8.5
2017-Jul-24 12:00N 49°51' W 001°21'5 9.9
2017-Jul-24 11:30N 49°51' W 001°29'611.2
2017-Jul-24 11:01N 49°52' W 001°38'612.2
2017-Jul-24 10:30N 49°52' W 001°47'1013.2
2017-Jul-24 09:44N 49°53' W 002°03'2714.4
2017-Jul-24 07:50N 49°49' W 002°45'2414.8
2017-Jul-24 06:14N 49°40' W 003°19'314.7
2017-Jul-24 06:00N 49°38' W 003°23'6214.0
2017-Jul-24 01:36N 49°07' W 004°45'1212.1
2017-Jul-24 00:36N 49°01' W 005°01'111.6
2017-Jul-24 00:29N 49°01' W 005°03'711.4
2017-Jul-23 23:51N 48°57' W 005°12'410.9
2017-Jul-23 23:28N 48°54' W 005°18'511.0
2017-Jul-23 23:00N 48°52' W 005°24'  
2017-Jul-21 19:00N 39°31' W 009°51'510.9
2017-Jul-21 18:30N 39°25' W 009°51'610.9
2017-Jul-21 18:00N 39°20' W 009°51'511.0
2017-Jul-21 17:30N 39°14' W 009°51'611.2
2017-Jul-21 17:01N 39°09' W 009°51'611.5
2017-Jul-21 16:30N 39°03' W 009°51'611.4
2017-Jul-21 16:00N 38°58' W 009°51'611.2
2017-Jul-21 15:31N 38°52' W 009°51'511.0
2017-Jul-21 15:01N 38°46' W 009°51'611.0
2017-Jul-21 14:30N 38°41' W 009°51'611.5
2017-Jul-21 14:01N 38°35' W 009°49'611.5
2017-Jul-21 13:31N 38°30' W 009°48'611.2
2017-Jul-21 13:00N 38°24' W 009°46'611.3
2017-Jul-21 12:30N 38°19' W 009°44'611.3
2017-Jul-21 12:00N 38°13' W 009°43'611.4
2017-Jul-21 11:29N 38°08' W 009°41'611.4
2017-Jul-21 10:58N 38°02' W 009°39'511.4
2017-Jul-21 10:31N 37°57' W 009°38'611.5
2017-Jul-21 10:00N 37°51' W 009°36'611.5
2017-Jul-21 09:30N 37°45' W 009°35'611.5
2017-Jul-21 08:59N 37°40' W 009°33'364 9.4
2017-Jul-19 18:11N 36°27' W 002°06'211.5
2017-Jul-19 18:00N 36°28' W 002°04'1411.8
2017-Jul-19 16:48N 36°33' W 001°47'412.2
2017-Jul-19 16:28N 36°34' W 001°42'912.6
2017-Jul-19 15:47N 36°37' W 001°32'312.4
2017-Jul-19 15:30N 36°38' W 001°28'7812.5
2017-Jul-19 09:16N 37°05' E 000°03'412.7
2017-Jul-19 08:58N 37°07' E 000°08'612.7
2017-Jul-19 08:30N 37°09' E 000°15'712.9
2017-Jul-19 07:57N 37°11' E 000°23'613.2
2017-Jul-19 07:29N 37°13' E 000°30'713.2
2017-Jul-19 06:57N 37°16' E 000°39'613.0
2017-Jul-19 06:28N 37°18' E 000°46'712.9
2017-Jul-19 05:55N 37°20' E 000°54'612.9
2017-Jul-19 05:27N 37°22' E 001°01'1512.7
2017-Jul-19 04:15N 37°28' E 001°19'313.2
2017-Jul-19 04:00N 37°29' E 001°23'612.7
2017-Jul-19 03:30N 37°31' E 001°31'712.7
2017-Jul-19 02:59N 37°33' E 001°39'612.6
2017-Jul-19 02:29N 37°35' E 001°46'612.6
2017-Jul-19 02:00N 37°38' E 001°53'612.4
2017-Jul-19 01:30N 37°40' E 002°01'612.3
2017-Jul-19 01:00N 37°42' E 002°08'612.2
2017-Jul-19 00:30N 37°44' E 002°15'612.2
2017-Jul-19 00:00N 37°46' E 002°22'611.8
2017-Jul-18 23:30N 37°47' E 002°30'612.0
2017-Jul-18 23:00N 37°47' E 002°37'612.1
2017-Jul-18 22:30N 37°47' E 002°45'612.2
2017-Jul-18 22:00N 37°47' E 002°53'612.3
2017-Jul-18 21:30N 37°46' E 003°00'612.4
2017-Jul-18 21:00N 37°46' E 003°08'612.3
2017-Jul-18 20:30N 37°46' E 003°16'712.4
2017-Jul-18 19:58N 37°46' E 003°25'612.6
2017-Jul-18 19:27N 37°46' E 003°33'612.5
2017-Jul-18 19:00N 37°46' E 003°40'612.6
2017-Jul-18 18:30N 37°46' E 003°48'612.9
2017-Jul-18 18:00N 37°46' E 003°56'612.9
2017-Jul-18 17:30N 37°46' E 004°04'612.8
2017-Jul-18 17:00N 37°46' E 004°12'612.9
2017-Jul-18 16:30N 37°46' E 004°20'613.0
2017-Jul-18 16:00N 37°46' E 004°29'713.0
2017-Jul-18 15:30N 37°46' E 004°37'713.0
2017-Jul-18 14:58N 37°45' E 004°46'1212.8
2017-Jul-18 14:00N 37°45' E 005°01'712.6
2017-Jul-18 13:28N 37°45' E 005°10'612.6
2017-Jul-18 13:00N 37°45' E 005°17'2412.3
2017-Jul-18 11:04N 37°45' E 005°47'1612.3
2017-Jul-18 09:44N 37°45' E 006°08'3212.1
2017-Jul-18 07:04N 37°44' E 006°49'312.2
2017-Jul-18 06:48N 37°44' E 006°53'  
Track history (hours):
 
Tides and Currents Weather Stations Pressure Air Temp Water Temp Dewpoint Dewpoint Depression Visibility Wind Speed Wind Dir Waves Ship Positions

Nassauborg

Ship's website: http://www.wagenborg.com/index.cfm?pid=37&itemid=158&contentitemid=236

Last reported at 2017-Jul-27 06:20 UTC. Time now 2017-Jul-27 06:49 UTC.
Position N 50°17' E 000°00'.

Length 143 m; beam 22 m.

Type: Ship. MMSI: 246430000.

Date/timePositionNaut miles runAvg speedWind from/ knotsBaromVisibWave heightAir tempDewpointWater temp
2017-Jul-27 06:20N 50°17' E 000°00'4410.0
2017-Jul-27 01:54N 49°36' W 000°26'919.0
2017-Jul-27 01:25N 49°28' W 000°19'512.9
2017-Jul-27 01:00N 49°31' W 000°12'611.1
2017-Jul-27 00:30N 49°29' W 000°04'5 9.0
2017-Jul-27 00:00N 49°27' E 000°02'611.7
2017-Jul-26 23:30N 49°26' E 000°11'510.7
2017-Jul-26 23:00N 49°26' E 000°19'4 8.8
2017-Jul-26 22:30N 49°27' E 000°25'4 7.2
2017-Jul-26 21:57N 49°29' E 000°31'6 6.5
2017-Jul-26 21:01N 49°28' E 000°40'011.2
2017-Jul-26 21:00N 49°28' E 000°40'0 0.0
2017-Jul-24 23:57N 49°27' E 000°40'4 9.7
2017-Jul-24 23:30N 49°27' E 000°33'4 8.8
2017-Jul-24 23:00N 49°28' E 000°26'713.1
2017-Jul-24 22:30N 49°26' E 000°17'611.3
2017-Jul-24 22:00N 49°26' E 000°08'611.9
2017-Jul-24 21:30N 49°28' W 000°00'510.0
2017-Jul-24 21:00N 49°30' W 000°07'4 8.4
2017-Jul-24 20:30N 49°32' W 000°13'4 7.7
2017-Jul-24 19:56N 49°33' W 000°20'5 8.5
2017-Jul-24 19:20N 49°35' W 000°27'1 2.2
2017-Jul-24 18:43N 49°36' W 000°26'2 7.5
2017-Jul-24 18:30N 49°35' W 000°23'4 7.2
2017-Jul-24 18:00N 49°33' W 000°19'37 7.3
2017-Jul-24 13:01N 49°49' W 001°10'4 7.4
2017-Jul-24 12:30N 49°51' W 001°15'4 8.5
2017-Jul-24 12:00N 49°51' W 001°21'5 9.9
2017-Jul-24 11:30N 49°51' W 001°29'611.2
2017-Jul-24 11:01N 49°52' W 001°38'612.2
2017-Jul-24 10:30N 49°52' W 001°47'1013.2
2017-Jul-24 09:44N 49°53' W 002°03'2714.4
2017-Jul-24 07:50N 49°49' W 002°45'2414.8
2017-Jul-24 06:14N 49°40' W 003°19'314.7
2017-Jul-24 06:00N 49°38' W 003°23'6214.0
2017-Jul-24 01:36N 49°07' W 004°45'1212.1
2017-Jul-24 00:36N 49°01' W 005°01'111.6
2017-Jul-24 00:29N 49°01' W 005°03'711.4
2017-Jul-23 23:51N 48°57' W 005°12'410.9
2017-Jul-23 23:28N 48°54' W 005°18'511.0
2017-Jul-23 23:00N 48°52' W 005°24'  
2017-Jul-21 19:00N 39°31' W 009°51'510.9
2017-Jul-21 18:30N 39°25' W 009°51'610.9
2017-Jul-21 18:00N 39°20' W 009°51'511.0
2017-Jul-21 17:30N 39°14' W 009°51'611.2
2017-Jul-21 17:01N 39°09' W 009°51'611.5
2017-Jul-21 16:30N 39°03' W 009°51'611.4
2017-Jul-21 16:00N 38°58' W 009°51'611.2
2017-Jul-21 15:31N 38°52' W 009°51'511.0
2017-Jul-21 15:01N 38°46' W 009°51'611.0
2017-Jul-21 14:30N 38°41' W 009°51'611.5
2017-Jul-21 14:01N 38°35' W 009°49'611.5
2017-Jul-21 13:31N 38°30' W 009°48'611.2
2017-Jul-21 13:00N 38°24' W 009°46'611.3
2017-Jul-21 12:30N 38°19' W 009°44'611.3
2017-Jul-21 12:00N 38°13' W 009°43'611.4
2017-Jul-21 11:29N 38°08' W 009°41'611.4
2017-Jul-21 10:58N 38°02' W 009°39'511.4
2017-Jul-21 10:31N 37°57' W 009°38'611.5
2017-Jul-21 10:00N 37°51' W 009°36'611.5
2017-Jul-21 09:30N 37°45' W 009°35'611.5
2017-Jul-21 08:59N 37°40' W 009°33'364 9.4
2017-Jul-19 18:11N 36°27' W 002°06'211.5
2017-Jul-19 18:00N 36°28' W 002°04'1411.8
2017-Jul-19 16:48N 36°33' W 001°47'412.2
2017-Jul-19 16:28N 36°34' W 001°42'912.6
2017-Jul-19 15:47N 36°37' W 001°32'312.4
2017-Jul-19 15:30N 36°38' W 001°28'7812.5
2017-Jul-19 09:16N 37°05' E 000°03'412.7
2017-Jul-19 08:58N 37°07' E 000°08'612.7
2017-Jul-19 08:30N 37°09' E 000°15'712.9
2017-Jul-19 07:57N 37°11' E 000°23'613.2
2017-Jul-19 07:29N 37°13' E 000°30'713.2
2017-Jul-19 06:57N 37°16' E 000°39'613.0
2017-Jul-19 06:28N 37°18' E 000°46'712.9
2017-Jul-19 05:55N 37°20' E 000°54'612.9
2017-Jul-19 05:27N 37°22' E 001°01'1512.7
2017-Jul-19 04:15N 37°28' E 001°19'313.2
2017-Jul-19 04:00N 37°29' E 001°23'612.7
2017-Jul-19 03:30N 37°31' E 001°31'712.7
2017-Jul-19 02:59N 37°33' E 001°39'612.6
2017-Jul-19 02:29N 37°35' E 001°46'612.6
2017-Jul-19 02:00N 37°38' E 001°53'612.4
2017-Jul-19 01:30N 37°40' E 002°01'612.3
2017-Jul-19 01:00N 37°42' E 002°08'612.2
2017-Jul-19 00:30N 37°44' E 002°15'612.2
2017-Jul-19 00:00N 37°46' E 002°22'611.8
2017-Jul-18 23:30N 37°47' E 002°30'612.0
2017-Jul-18 23:00N 37°47' E 002°37'612.1
2017-Jul-18 22:30N 37°47' E 002°45'612.2
2017-Jul-18 22:00N 37°47' E 002°53'612.3
2017-Jul-18 21:30N 37°46' E 003°00'612.4
2017-Jul-18 21:00N 37°46' E 003°08'612.3
2017-Jul-18 20:30N 37°46' E 003°16'712.4
2017-Jul-18 19:58N 37°46' E 003°25'612.6
2017-Jul-18 19:27N 37°46' E 003°33'612.5
2017-Jul-18 19:00N 37°46' E 003°40'612.6
2017-Jul-18 18:30N 37°46' E 003°48'612.9
2017-Jul-18 18:00N 37°46' E 003°56'612.9
2017-Jul-18 17:30N 37°46' E 004°04'612.8
2017-Jul-18 17:00N 37°46' E 004°12'612.9
2017-Jul-18 16:30N 37°46' E 004°20'613.0
2017-Jul-18 16:00N 37°46' E 004°29'713.0
2017-Jul-18 15:30N 37°46' E 004°37'713.0
2017-Jul-18 14:58N 37°45' E 004°46'1212.8
2017-Jul-18 14:00N 37°45' E 005°01'712.6
2017-Jul-18 13:28N 37°45' E 005°10'612.6
2017-Jul-18 13:00N 37°45' E 005°17'2412.3
2017-Jul-18 11:04N 37°45' E 005°47'1612.3
2017-Jul-18 09:44N 37°45' E 006°08'3212.1
2017-Jul-18 07:04N 37°44' E 006°49'312.2
2017-Jul-18 06:48N 37°44' E 006°53'  

Dump ship's entire track history